createdAt,value
2023-01-22T00:01:10.722Z,99.90
2023-01-22T00:03:50.697Z,99.90
2023-01-22T00:06:18.116Z,99.90
2023-01-22T00:08:46.765Z,99.90
2023-01-22T00:11:14.530Z,99.90
2023-01-22T00:13:41.855Z,99.90
2023-01-22T00:16:15.666Z,99.90
2023-01-22T00:18:43.660Z,99.90
2023-01-22T00:21:12.670Z,99.90
2023-01-22T00:23:40.392Z,99.90
2023-01-22T00:26:12.874Z,99.90
2023-01-22T00:28:42.437Z,99.90
2023-01-22T00:31:11.108Z,99.90
2023-01-22T00:33:38.678Z,99.90
2023-01-22T00:36:07.192Z,99.90
2023-01-22T00:38:35.082Z,99.90
2023-01-22T00:41:05.686Z,99.90
2023-01-22T00:43:33.765Z,99.90
2023-01-22T00:46:02.456Z,99.90
2023-01-22T00:48:30.057Z,99.90
2023-01-22T00:50:57.835Z,99.90
2023-01-22T00:53:25.279Z,99.90
2023-01-22T00:56:00.273Z,99.90
2023-01-22T00:58:28.212Z,99.90
2023-01-22T01:00:55.625Z,99.90
2023-01-22T01:03:31.094Z,99.90
2023-01-22T01:06:07.371Z,99.90
2023-01-22T01:08:42.539Z,99.90
2023-01-22T01:11:15.103Z,99.90
2023-01-22T01:13:43.208Z,99.90
2023-01-22T01:16:16.079Z,99.90
2023-01-22T01:18:45.437Z,99.90
2023-01-22T01:21:12.682Z,99.90
2023-01-22T01:23:41.485Z,99.90
2023-01-22T01:26:10.796Z,99.90
2023-01-22T01:28:42.756Z,99.90
2023-01-22T01:31:12.141Z,99.90
2023-01-22T01:33:40.147Z,99.90
2023-01-22T01:36:10.570Z,99.90
2023-01-22T01:38:39.159Z,99.90
2023-01-22T01:41:06.620Z,99.90
2023-01-22T01:43:35.130Z,99.90
2023-01-22T01:46:03.089Z,99.90
2023-01-22T01:48:47.289Z,99.90
2023-01-22T01:51:22.325Z,99.90
2023-01-22T01:53:50.166Z,99.90
2023-01-22T01:56:22.420Z,99.90
2023-01-22T01:58:51.660Z,99.90
2023-01-22T02:01:19.527Z,99.90
2023-01-22T02:03:47.329Z,99.90
2023-01-22T02:06:16.695Z,99.90
2023-01-22T02:08:47.478Z,99.90
2023-01-22T02:11:15.665Z,99.90
2023-01-22T02:14:01.803Z,99.90
2023-01-22T02:16:35.066Z,99.90
2023-01-22T02:19:02.659Z,99.90
2023-01-22T02:21:39.986Z,99.90
2023-01-22T02:24:18.298Z,99.90
2023-01-22T02:26:45.986Z,99.90
2023-01-22T02:29:18.851Z,99.90
2023-01-22T02:31:46.150Z,99.90
2023-01-22T02:34:13.980Z,99.90
2023-01-22T02:36:43.224Z,99.90
2023-01-22T02:39:10.618Z,99.90
2023-01-22T02:41:39.224Z,99.90
2023-01-22T02:44:10.215Z,99.90
2023-01-22T02:46:40.526Z,99.90
2023-01-22T02:49:08.173Z,99.90
2023-01-22T02:51:35.819Z,99.90
2023-01-22T02:54:03.019Z,99.90
2023-01-22T02:56:30.550Z,99.90
2023-01-22T02:59:00.571Z,99.90
2023-01-22T03:01:31.936Z,99.90
2023-01-22T03:04:11.346Z,99.90
2023-01-22T03:06:47.965Z,99.90
2023-01-22T03:09:16.525Z,99.90
2023-01-22T03:11:44.784Z,99.90
2023-01-22T03:14:37.474Z,99.90
2023-01-22T03:17:23.781Z,99.90
2023-01-22T03:20:10.743Z,99.90
2023-01-22T03:22:38.644Z,99.90
2023-01-22T03:25:06.269Z,99.90
2023-01-22T03:27:33.828Z,99.90
2023-01-22T03:30:01.160Z,99.90
2023-01-22T03:32:33.308Z,99.90
2023-01-22T03:35:02.055Z,99.90
2023-01-22T03:37:41.026Z,99.90
2023-01-22T03:40:10.163Z,99.90
2023-01-22T03:42:39.690Z,99.90
2023-01-22T03:45:11.196Z,99.90
2023-01-22T03:47:39.610Z,99.90
2023-01-22T03:50:21.350Z,99.90
2023-01-22T03:52:48.748Z,99.90
2023-01-22T03:55:16.060Z,99.90
2023-01-22T03:57:43.956Z,99.90
2023-01-22T04:00:13.995Z,99.90
2023-01-22T04:02:43.220Z,99.90
2023-01-22T04:05:19.388Z,99.90
2023-01-22T04:07:48.642Z,99.90
2023-01-22T04:10:18.433Z,99.90
2023-01-22T04:12:46.192Z,99.90
2023-01-22T04:15:15.837Z,99.90
2023-01-22T04:17:43.192Z,99.90
2023-01-22T04:20:26.821Z,99.90
2023-01-22T04:23:10.152Z,99.90
2023-01-22T04:25:40.852Z,99.90
2023-01-22T04:28:11.010Z,99.90
2023-01-22T04:30:42.550Z,99.90
2023-01-22T04:33:36.330Z,99.90
2023-01-22T04:36:09.469Z,99.90
2023-01-22T04:38:37.238Z,99.90
2023-01-22T04:41:04.734Z,99.90
2023-01-22T04:43:32.274Z,99.90
2023-01-22T04:45:59.668Z,99.90
2023-01-22T04:48:30.930Z,99.90
2023-01-22T04:50:58.548Z,99.90
2023-01-22T04:53:28.692Z,99.90
2023-01-22T04:55:55.879Z,99.90
2023-01-22T04:58:23.308Z,99.90
2023-01-22T05:00:52.802Z,99.90
2023-01-22T05:03:20.109Z,99.90
2023-01-22T05:05:47.761Z,99.90
2023-01-22T05:08:17.033Z,99.90
2023-01-22T05:10:44.980Z,99.90
2023-01-22T05:13:18.623Z,99.90
2023-01-22T05:15:46.027Z,99.90
2023-01-22T05:18:14.686Z,99.90
2023-01-22T05:20:52.189Z,99.90
2023-01-22T05:23:21.876Z,99.90
2023-01-22T05:25:49.654Z,99.90
2023-01-22T05:28:21.855Z,99.90
2023-01-22T05:31:11.505Z,99.90
2023-01-22T05:33:48.133Z,99.90
2023-01-22T05:36:16.186Z,99.90
2023-01-22T05:38:46.698Z,99.90
2023-01-22T05:41:14.974Z,99.90
2023-01-22T05:43:42.495Z,99.90
2023-01-22T05:46:15.805Z,99.90
2023-01-22T05:49:04.516Z,99.90
2023-01-22T05:51:34.260Z,99.90
2023-01-22T05:54:01.755Z,99.90
2023-01-22T05:56:32.100Z,99.90
2023-01-22T05:58:59.455Z,99.90
2023-01-22T06:01:26.859Z,99.90
2023-01-22T06:03:56.695Z,99.90
2023-01-22T06:06:25.732Z,99.90
2023-01-22T06:08:53.613Z,99.90
2023-01-22T06:11:22.511Z,99.90
2023-01-22T06:13:50.345Z,99.90
2023-01-22T06:16:20.049Z,99.90
2023-01-22T06:18:53.471Z,99.90
2023-01-22T06:21:20.937Z,99.90
2023-01-22T06:23:48.311Z,99.90
2023-01-22T06:26:15.973Z,99.90
2023-01-22T06:28:43.352Z,99.90
2023-01-22T06:31:11.400Z,99.90
2023-01-22T06:33:39.191Z,99.90
2023-01-22T06:36:06.801Z,99.90
2023-01-22T06:38:34.381Z,99.90
2023-01-22T06:41:04.362Z,99.90
2023-01-22T06:43:33.007Z,99.90
2023-01-22T06:46:00.285Z,99.90
2023-01-22T06:48:50.716Z,99.90
2023-01-22T06:51:17.860Z,99.90
2023-01-22T06:53:46.759Z,99.90
2023-01-22T06:56:14.165Z,99.90
2023-01-22T06:58:41.549Z,99.90
2023-01-22T07:01:10.063Z,99.90
2023-01-22T07:03:39.219Z,99.90
2023-01-22T07:06:06.517Z,99.90
2023-01-22T07:08:34.244Z,99.90
2023-01-22T07:11:01.799Z,99.90
2023-01-22T07:13:29.173Z,99.90
2023-01-22T07:15:56.394Z,99.90
2023-01-22T07:18:24.710Z,99.90
2023-01-22T07:20:51.939Z,99.90
2023-01-22T07:23:22.241Z,99.90
2023-01-22T07:25:49.733Z,99.90
2023-01-22T07:28:17.334Z,99.90
2023-01-22T07:30:47.051Z,99.90
2023-01-22T07:33:15.094Z,99.90
2023-01-22T07:35:42.754Z,99.90
2023-01-22T07:38:15.945Z,99.90
2023-01-22T07:40:44.125Z,99.90
2023-01-22T07:43:17.047Z,99.90
2023-01-22T07:45:45.166Z,99.90
2023-01-22T07:48:16.053Z,99.90
2023-01-22T07:50:43.615Z,99.90
2023-01-22T07:53:12.238Z,99.90
2023-01-22T07:55:42.436Z,99.90
2023-01-22T07:58:14.956Z,99.90
2023-01-22T08:00:42.891Z,99.90
2023-01-22T08:03:15.796Z,99.90
2023-01-22T08:05:44.612Z,99.90
2023-01-22T08:08:22.424Z,99.90
2023-01-22T08:10:50.347Z,99.90
2023-01-22T08:13:17.844Z,99.90
2023-01-22T08:15:46.847Z,99.90
2023-01-22T08:18:19.998Z,99.90
2023-01-22T08:20:53.831Z,99.90
2023-01-22T08:23:26.412Z,99.90
2023-01-22T08:25:57.647Z,99.90
2023-01-22T08:28:33.027Z,99.90
2023-01-22T08:31:01.633Z,99.90
2023-01-22T08:33:33.216Z,99.90
2023-01-22T08:36:02.338Z,99.90
2023-01-22T08:38:41.675Z,99.90
2023-01-22T08:41:17.730Z,99.90
2023-01-22T08:43:46.881Z,99.90
2023-01-22T08:46:14.617Z,99.90
2023-01-22T08:48:46.450Z,99.90
2023-01-22T08:51:27.172Z,99.90
2023-01-22T08:54:00.695Z,99.90
2023-01-22T08:56:29.192Z,99.90
2023-01-22T08:59:19.927Z,99.90
2023-01-22T09:02:20.221Z,99.90
2023-01-22T09:04:54.210Z,99.90
2023-01-22T09:07:38.980Z,99.90
2023-01-22T09:10:10.821Z,99.90
2023-01-22T09:12:59.234Z,99.90
2023-01-22T09:15:37.964Z,99.90
2023-01-22T09:18:20.863Z,99.90
2023-01-22T09:21:20.211Z,99.90
2023-01-22T09:23:55.569Z,99.90
2023-01-22T09:26:26.716Z,99.90
2023-01-22T09:29:37.951Z,99.90
2023-01-22T09:32:26.740Z,99.90
2023-01-22T09:35:06.839Z,99.90
2023-01-22T09:44:43.318Z,99.90
2023-01-22T09:47:24.495Z,99.90
2023-01-22T09:50:01.385Z,99.90
2023-01-22T09:52:53.561Z,99.90
2023-01-22T09:55:41.293Z,99.90
2023-01-22T09:58:38.943Z,99.90
2023-01-22T10:01:17.594Z,99.90
2023-01-22T10:03:51.346Z,99.90
2023-01-22T10:06:23.230Z,99.90
2023-01-22T10:09:09.285Z,99.90
2023-01-22T10:14:29.570Z,99.90
2023-01-22T10:17:02.126Z,99.90
2023-01-22T10:19:52.753Z,99.90
2023-01-22T10:22:30.771Z,99.90
2023-01-22T10:25:06.059Z,99.90
2023-01-22T10:27:48.571Z,99.90
2023-01-22T10:30:25.787Z,99.90
2023-01-22T10:33:04.364Z,99.90
2023-01-22T10:35:43.548Z,99.90
2023-01-22T10:38:28.574Z,99.90
2023-01-22T10:41:10.091Z,99.90
2023-01-22T10:43:41.490Z,99.90
2023-01-22T10:46:18.869Z,99.90
2023-01-22T10:48:46.495Z,99.90
2023-01-22T10:51:16.590Z,99.90
2023-01-22T10:54:00.362Z,99.90
2023-01-22T10:56:34.216Z,99.90
2023-01-22T10:59:23.728Z,99.90
2023-01-22T11:02:05.534Z,99.90
2023-01-22T11:04:39.893Z,99.90
2023-01-22T11:07:18.355Z,99.90
2023-01-22T11:10:12.287Z,99.90
2023-01-22T11:13:10.652Z,99.90
2023-01-22T11:16:23.220Z,99.90
2023-01-22T11:20:08.931Z,99.90
2023-01-22T11:22:42.685Z,99.90
2023-01-22T11:25:14.680Z,99.90
2023-01-22T11:28:24.403Z,99.90
2023-01-22T11:34:36.705Z,99.90
2023-01-22T11:38:01.265Z,99.90
2023-01-22T11:44:02.071Z,99.90
2023-01-22T11:50:39.861Z,99.90
2023-01-22T11:58:21.259Z,99.90
2023-01-22T12:01:37.214Z,99.90
2023-01-22T12:05:07.790Z,99.90
2023-01-22T12:12:11.338Z,99.90
2023-01-22T12:18:12.958Z,99.90
2023-01-22T12:21:07.260Z,99.90
2023-01-22T12:23:46.370Z,99.90
2023-01-22T12:59:48.401Z,99.90
2023-01-22T13:03:33.000Z,99.90
2023-01-22T14:28:48.954Z,88.30
2023-01-22T14:35:56.056Z,93.80
2023-01-22T14:39:04.632Z,94.70
2023-01-22T14:46:18.367Z,96.70
2023-01-22T14:49:19.309Z,95.80
2023-01-22T14:52:53.110Z,95.70
2023-01-22T15:02:16.493Z,96.40
2023-01-22T15:08:56.946Z,93.40
2023-01-22T15:15:13.088Z,92.60
2023-01-22T15:18:01.044Z,93.00
2023-01-22T15:20:32.311Z,95.50
2023-01-22T15:23:30.158Z,92.30
2023-01-22T15:26:57.335Z,91.80
2023-01-22T15:29:35.754Z,91.10
2023-01-22T15:32:17.518Z,89.20
2023-01-22T15:35:12.734Z,92.20
2023-01-22T15:37:52.049Z,90.90
2023-01-22T15:41:17.056Z,91.30
2023-01-22T15:43:55.019Z,92.60
2023-01-22T15:46:29.908Z,95.00
2023-01-22T15:49:02.645Z,96.30
2023-01-22T15:51:32.824Z,97.10
2023-01-22T15:54:05.177Z,96.90
2023-01-22T15:56:39.048Z,97.30
2023-01-22T15:59:07.794Z,96.30
2023-01-22T16:01:35.561Z,95.60
2023-01-22T16:04:07.726Z,96.50
2023-01-22T16:06:37.826Z,95.80
2023-01-22T16:09:06.319Z,96.20
2023-01-22T16:11:37.653Z,97.30
2023-01-22T16:14:10.059Z,98.20
2023-01-22T16:16:41.614Z,93.70
2023-01-22T16:19:13.802Z,93.00
2023-01-22T16:21:49.924Z,91.60
2023-01-22T16:24:22.188Z,93.40
2023-01-22T16:26:56.981Z,96.20
2023-01-22T16:29:27.309Z,96.20
2023-01-22T16:31:55.857Z,90.80
2023-01-22T16:34:37.802Z,88.50
2023-01-22T16:37:05.109Z,89.00
2023-01-22T16:39:34.308Z,91.20
2023-01-22T16:42:14.594Z,90.40
2023-01-22T16:44:44.356Z,92.10
2023-01-22T16:47:11.771Z,91.80
2023-01-22T16:49:39.275Z,94.40
2023-01-22T16:52:21.820Z,92.80
2023-01-22T16:54:50.500Z,95.00
2023-01-22T16:57:19.415Z,97.20
2023-01-22T16:59:46.681Z,99.40
2023-01-22T17:02:15.223Z,99.90
2023-01-22T17:04:45.257Z,99.90
2023-01-22T17:07:27.426Z,99.90
2023-01-22T17:10:05.720Z,99.90
2023-01-22T17:12:33.392Z,99.90
2023-01-22T17:15:00.552Z,99.90
2023-01-22T17:17:27.973Z,99.90
2023-01-22T17:19:55.766Z,99.90
2023-01-22T17:22:24.436Z,99.90
2023-01-22T17:24:52.900Z,99.90
2023-01-22T17:27:21.631Z,99.90
2023-01-22T17:29:48.958Z,99.90
2023-01-22T17:32:16.431Z,99.90
2023-01-22T17:34:45.893Z,99.90
2023-01-22T17:37:13.814Z,99.90
2023-01-22T17:39:46.298Z,99.90
2023-01-22T17:42:13.676Z,99.90
2023-01-22T17:44:47.400Z,99.90
2023-01-22T17:47:16.748Z,99.90
2023-01-22T17:49:46.798Z,99.90
2023-01-22T17:52:16.737Z,99.90
2023-01-22T17:54:44.392Z,99.90
2023-01-22T17:57:11.943Z,99.90
2023-01-22T17:59:39.723Z,99.90
2023-01-22T18:02:07.072Z,99.90
2023-01-22T18:04:34.985Z,99.90
2023-01-22T18:07:04.002Z,99.90
2023-01-22T18:09:31.332Z,99.90
2023-01-22T18:11:59.573Z,99.90
2023-01-22T18:14:30.395Z,99.90
2023-01-22T18:16:57.640Z,99.90
2023-01-22T18:19:24.843Z,99.90
2023-01-22T18:21:52.143Z,99.90
2023-01-22T18:24:23.011Z,99.90
2023-01-22T18:26:51.124Z,99.90
2023-01-22T18:29:18.396Z,99.90
2023-01-22T18:31:45.803Z,99.90
2023-01-22T18:34:15.403Z,99.90
2023-01-22T18:36:51.785Z,99.90
2023-01-22T18:39:19.469Z,99.90
2023-01-22T18:41:47.225Z,99.90
2023-01-22T18:44:26.449Z,99.90
2023-01-22T18:46:55.950Z,99.90
2023-01-22T18:49:28.258Z,99.90
2023-01-22T18:51:59.414Z,99.90
2023-01-22T18:54:26.895Z,99.90
2023-01-22T18:56:54.176Z,99.90
2023-01-22T18:59:21.449Z,99.90
2023-01-22T19:01:52.440Z,99.90
2023-01-22T19:04:22.182Z,99.90
2023-01-22T19:06:53.637Z,99.90
2023-01-22T19:09:20.957Z,99.90
2023-01-22T19:11:49.080Z,99.90
2023-01-22T19:14:18.384Z,99.90
2023-01-22T19:16:48.643Z,99.90
2023-01-22T19:19:17.414Z,99.90
2023-01-22T19:21:48.181Z,99.90
2023-01-22T19:24:16.651Z,99.90
2023-01-22T19:26:46.243Z,99.90
2023-01-22T19:29:17.954Z,99.90
2023-01-22T19:31:47.670Z,99.90
2023-01-22T19:34:18.786Z,99.90
2023-01-22T19:36:46.005Z,99.90
2023-01-22T19:39:13.357Z,99.90
2023-01-22T19:41:43.830Z,99.90
2023-01-22T19:44:11.641Z,99.90
2023-01-22T19:46:41.214Z,99.90
2023-01-22T19:49:08.931Z,99.90
2023-01-22T19:51:39.529Z,99.90
2023-01-22T19:54:07.129Z,99.90
2023-01-22T19:56:37.605Z,99.90
2023-01-22T19:59:10.515Z,99.90
2023-01-22T20:01:38.152Z,99.90
2023-01-22T20:04:09.070Z,99.90
2023-01-22T20:06:42.951Z,99.90
2023-01-22T20:09:13.379Z,99.90
2023-01-22T20:11:54.293Z,99.90
2023-01-22T20:14:31.025Z,99.90
2023-01-22T20:16:58.979Z,99.90
2023-01-22T20:19:32.116Z,99.90
2023-01-22T20:22:00.673Z,99.90
2023-01-22T20:24:28.507Z,99.90
2023-01-22T20:26:57.467Z,99.90
2023-01-22T20:29:25.858Z,99.90
2023-01-22T20:31:53.926Z,99.90
2023-01-22T20:34:25.038Z,99.90
2023-01-22T20:36:58.655Z,99.90
2023-01-22T20:39:26.048Z,99.90
2023-01-22T20:41:54.794Z,99.90
2023-01-22T20:44:31.003Z,99.90
2023-01-22T20:46:58.765Z,99.90
2023-01-22T20:49:29.027Z,99.90
2023-01-22T20:52:01.431Z,99.90
2023-01-22T20:54:42.862Z,99.90
2023-01-22T20:57:27.615Z,99.90
2023-01-22T20:59:55.226Z,99.90
2023-01-22T21:02:23.891Z,99.90
2023-01-22T21:04:52.950Z,99.90
2023-01-22T21:07:26.684Z,99.90
2023-01-22T21:10:03.224Z,99.90
2023-01-22T21:12:34.147Z,99.90
2023-01-22T21:18:11.738Z,99.90
2023-01-22T21:21:06.652Z,99.90
2023-01-22T21:23:35.501Z,99.90
2023-01-22T21:26:12.096Z,99.90
2023-01-22T21:28:54.309Z,99.90
2023-01-22T21:31:48.919Z,99.90
2023-01-22T21:34:25.080Z,99.90
2023-01-22T21:37:05.263Z,99.90
2023-01-22T21:39:33.469Z,99.90
2023-01-22T21:42:37.651Z,99.90
2023-01-22T21:48:14.775Z,99.90
2023-01-22T21:50:45.539Z,99.90
2023-01-22T21:53:35.827Z,99.90
2023-01-22T21:56:26.478Z,99.90
2023-01-22T21:58:54.712Z,99.90
2023-01-22T22:01:26.015Z,99.90
2023-01-22T22:03:57.292Z,99.90
2023-01-22T22:06:30.912Z,99.90
2023-01-22T22:09:00.533Z,99.90
2023-01-22T22:11:35.029Z,99.90
2023-01-22T22:14:02.677Z,99.90
2023-01-22T22:16:30.431Z,99.90
2023-01-22T22:18:57.989Z,99.90
2023-01-22T22:21:27.570Z,99.90
2023-01-22T22:23:58.211Z,99.90
2023-01-22T22:26:32.310Z,99.90
2023-01-22T22:29:00.102Z,99.90
2023-01-22T22:31:32.579Z,99.90
2023-01-22T22:34:00.510Z,99.90
2023-01-22T22:36:29.090Z,99.90
2023-01-22T22:38:56.496Z,99.90
2023-01-22T22:41:31.368Z,99.90
2023-01-22T22:44:02.058Z,99.90
2023-01-22T22:46:31.901Z,99.90
2023-01-22T22:49:00.410Z,99.90
2023-01-22T22:51:44.528Z,99.90
2023-01-22T22:54:16.137Z,99.90
2023-01-22T22:56:47.503Z,99.90
2023-01-22T22:59:15.325Z,99.90
2023-01-22T23:01:42.861Z,99.90
2023-01-22T23:04:12.020Z,99.90
2023-01-22T23:06:39.318Z,99.90
2023-01-22T23:09:13.005Z,99.90
2023-01-22T23:11:40.268Z,99.90
2023-01-22T23:14:07.383Z,99.90
2023-01-22T23:16:44.712Z,99.90
2023-01-22T23:19:25.471Z,99.90
2023-01-22T23:21:54.227Z,99.90
2023-01-22T23:24:21.515Z,99.90
2023-01-22T23:26:48.961Z,99.90
2023-01-22T23:29:20.858Z,99.90
2023-01-22T23:31:48.399Z,99.90
2023-01-22T23:34:17.352Z,99.90
2023-01-22T23:36:48.254Z,99.90
2023-01-22T23:39:16.920Z,99.90
2023-01-22T23:41:44.257Z,99.90
2023-01-22T23:44:14.047Z,99.90
2023-01-22T23:46:44.976Z,99.90
2023-01-22T23:49:12.202Z,99.90
2023-01-22T23:51:42.489Z,99.90
2023-01-22T23:54:17.854Z,99.90
2023-01-22T23:56:45.366Z,99.90
2023-01-22T23:59:12.986Z,99.90
